Wilmington, Delaware
Current Conditions -  °F | °C
As of 3:51 PM on Friday 24 Oct 2014 (Local Time) from KILG Reporting Station
Clear Clear  
Wind Chill: 67°   Ceiling: Unl
Heat Index: 67°   Visibility: 10mi
Dew Point: 43°   Wind: 13mph
Humidity: 42%   Direction: 300°WNW
Pressure: 29.83"   Gusts: NA
Location:  39.74°N, 75.55°W
Report Text: KILG 241951Z 30011KT 10SM CLR 19/06 A2983 RMK AO2 SLP102 T01940061
Loading
Personal Weather Stations






























Interactive Weather Map
Tropical Storm Tracking
New forecast layout! Learn more

10-Day Weather Forecast

Advertisements
Track Severe Weather on mobile